Time;durP1;ratioP1;P1;durP2;ratioP2;P2;SDS_P1;SDS_P2;PMS_P1;PMS_P2;Temp;Humidity;BMP_temperature;BMP_pressure;BME280_temperature;BME280_humidity;BME280_pressure;Samples;Min_cycle;Max_cycle;Signal;HPM_P1;HPM_P2
2021/11/04 00:00:56;;;;;;;;;;;18.20;60.90;;;;;;5025697;28;19915;-74
2021/11/04 00:03:22;;;;;;;;;;;18.20;60.80;;;;;;5025410;28;19923;-75
2021/11/04 00:05:47;;;;;;;;;;;18.10;60.70;;;;;;5042563;28;20131;-74
2021/11/04 00:08:12;;;;;;;;;;;18.20;60.70;;;;;;5041372;28;19917;-74
2021/11/04 00:10:38;;;;;;;;;;;18.20;60.70;;;;;;5046953;28;20388;-75
2021/11/04 00:13:03;;;;;;;;;;;18.20;60.60;;;;;;5047409;28;19913;-74
2021/11/04 00:15:29;;;;;;;;;;;18.20;60.60;;;;;;5047094;28;19912;-74
2021/11/04 00:17:58;;;;;;;;;;;18.20;60.60;;;;;;5046183;28;21301;-73
2021/11/04 00:20:24;;;;;;;;;;;18.20;60.60;;;;;;5046358;28;19921;-75
2021/11/04 00:22:49;;;;;;;;;;;18.20;60.60;;;;;;5011747;28;20439;-74
2021/11/04 00:25:15;;;;;;;;;;;18.20;60.60;;;;;;5047005;28;19919;-75
2021/11/04 00:27:40;;;;;;;;;;;18.20;60.50;;;;;;5047033;28;19955;-76
2021/11/04 00:30:06;;;;;;;;;;;18.20;60.60;;;;;;5029499;28;19999;-75
2021/11/04 00:32:31;;;;;;;;;;;18.20;60.50;;;;;;5012788;28;19928;-74
2021/11/04 00:34:57;;;;;;;;;;;18.20;60.40;;;;;;5047289;28;19963;-74
2021/11/04 00:37:22;;;;;;;;;;;18.20;60.50;;;;;;5046468;28;20416;-75
2021/11/04 00:39:48;;;;;;;;;;;18.20;60.40;;;;;;5046956;28;19966;-74
2021/11/04 00:42:13;;;;;;;;;;;18.20;60.40;;;;;;5046701;28;19916;-73
2021/11/04 00:44:39;;;;;;;;;;;18.20;60.40;;;;;;5029316;28;19924;-75
2021/11/04 00:47:04;;;;;;;;;;;18.20;60.50;;;;;;5046605;28;20450;-75
2021/11/04 00:49:30;;;;;;;;;;;18.20;60.40;;;;;;5046748;28;19913;-74
2021/11/04 00:51:55;;;;;;;;;;;18.20;60.40;;;;;;5028918;28;19917;-74
2021/11/04 00:54:20;;;;;;;;;;;18.20;60.40;;;;;;5028819;28;19917;-75
2021/11/04 00:56:46;;;;;;;;;;;18.20;60.40;;;;;;5046554;28;19912;-74
2021/11/04 00:59:11;;;;;;;;;;;18.20;60.30;;;;;;5012506;28;19923;-74
2021/11/04 01:01:37;;;;;;;;;;;18.20;60.40;;;;;;5018486;28;20304;-74
2021/11/04 01:04:02;;;;;;;;;;;18.20;60.40;;;;;;5028367;28;19925;-74
2021/11/04 01:06:28;;;;;;;;;;;18.10;60.30;;;;;;5028726;28;20003;-74
2021/11/04 01:08:53;;;;;;;;;;;18.10;60.50;;;;;;5028297;28;20378;-74
2021/11/04 01:11:19;;;;;;;;;;;18.10;60.50;;;;;;5028470;28;19919;-74
2021/11/04 01:13:44;;;;;;;;;;;18.10;60.60;;;;;;5046156;28;19920;-74
2021/11/04 01:16:10;;;;;;;;;;;18.10;60.70;;;;;;5028873;28;19913;-74
2021/11/04 01:18:35;;;;;;;;;;;18.00;60.70;;;;;;5028729;28;19920;-74
2021/11/04 01:21:01;;;;;;;;;;;18.00;60.70;;;;;;5027254;28;19920;-74
2021/11/04 01:23:26;;;;;;;;;;;18.00;60.70;;;;;;5028220;28;20381;-74
2021/11/04 01:25:52;;;;;;;;;;;18.00;60.80;;;;;;5046065;28;19967;-77
2021/11/04 01:28:17;;;;;;;;;;;18.00;60.80;;;;;;5028015;28;19913;-74
2021/11/04 01:30:43;;;;;;;;;;;18.00;60.90;;;;;;5046060;28;19927;-75
2021/11/04 01:33:08;;;;;;;;;;;18.00;60.90;;;;;;5046603;28;19955;-75
2021/11/04 01:35:35;;;;;;;;;;;17.90;61.00;;;;;;5046207;28;19913;-75
2021/11/04 01:38:01;;;;;;;;;;;17.90;60.90;;;;;;5028502;28;19959;-75
2021/11/04 01:40:27;;;;;;;;;;;17.90;60.90;;;;;;5046237;28;19952;-73
2021/11/04 01:42:52;;;;;;;;;;;18.00;61.00;;;;;;5046186;28;19920;-74
2021/11/04 01:45:18;;;;;;;;;;;18.00;61.00;;;;;;5028670;28;20259;-74
2021/11/04 01:47:45;;;;;;;;;;;17.90;61.00;;;;;;5046599;28;19917;-74
2021/11/04 01:50:14;;;;;;;;;;;17.90;61.20;;;;;;5030363;28;19917;-74
2021/11/04 01:52:40;;;;;;;;;;;17.90;61.30;;;;;;5021917;28;20043;-74
2021/11/04 01:55:05;;;;;;;;;;;17.90;61.30;;;;;;5050166;28;19912;-74
2021/11/04 01:57:31;;;;;;;;;;;17.90;61.30;;;;;;5016440;28;19912;-74
2021/11/04 01:59:56;;;;;;;;;;;17.90;61.30;;;;;;5052598;28;19913;-73
2021/11/04 02:02:22;;;;;;;;;;;17.90;61.30;;;;;;5014527;28;19912;-73
2021/11/04 02:04:50;;;;;;;;;;;17.90;61.30;;;;;;5028754;28;19929;-73
2021/11/04 02:07:20;;;;;;;;;;;18.00;61.10;;;;;;5028404;28;19916;-74
2021/11/04 02:09:49;;;;;;;;;;;18.00;61.00;;;;;;5011956;28;20382;-74
2021/11/04 02:12:16;;;;;;;;;;;18.00;61.00;;;;;;5045652;28;19952;-73
2021/11/04 02:14:43;;;;;;;;;;;18.00;60.80;;;;;;5028482;28;19992;-74
2021/11/04 02:17:09;;;;;;;;;;;18.10;60.70;;;;;;5027331;28;20357;-75
2021/11/04 02:19:47;;;;;;;;;;;18.10;60.60;;;;;;5027544;28;20400;-74
2021/11/04 02:22:33;;;;;;;;;;;18.20;60.50;;;;;;5011675;28;20340;-74
2021/11/04 02:25:04;;;;;;;;;;;18.20;60.40;;;;;;5027303;28;20294;-74
2021/11/04 02:27:29;;;;;;;;;;;18.20;60.30;;;;;;5010683;28;19912;-74
2021/11/04 02:29:55;;;;;;;;;;;18.20;60.20;;;;;;5027420;28;19936;-73
2021/11/04 02:32:20;;;;;;;;;;;18.20;60.10;;;;;;5026963;28;19919;-73
2021/11/04 02:34:46;;;;;;;;;;;18.30;60.20;;;;;;5010409;28;20401;-73
2021/11/04 02:37:11;;;;;;;;;;;18.30;60.10;;;;;;5010597;28;19913;-73
2021/11/04 02:39:37;;;;;;;;;;;18.30;60.10;;;;;;5010528;28;19995;-74
2021/11/04 02:42:02;;;;;;;;;;;18.30;60.10;;;;;;5026869;28;19916;-74
2021/11/04 02:44:28;;;;;;;;;;;18.30;60.10;;;;;;5026764;28;19917;-73
2021/11/04 02:46:56;;;;;;;;;;;18.30;60.00;;;;;;5011418;28;19917;-73
2021/11/04 02:49:25;;;;;;;;;;;18.30;60.10;;;;;;5045099;28;19913;-74
2021/11/04 02:51:50;;;;;;;;;;;18.30;60.10;;;;;;5017057;28;19912;-74
2021/11/04 02:54:16;;;;;;;;;;;18.30;60.10;;;;;;5026503;28;19999;-74
2021/11/04 02:56:49;;;;;;;;;;;18.30;60.10;;;;;;5027198;28;19912;-74
2021/11/04 02:59:15;;;;;;;;;;;18.30;60.00;;;;;;5026822;28;19916;-73
2021/11/04 03:01:41;;;;;;;;;;;18.30;60.00;;;;;;5027043;28;19920;-76
2021/11/04 03:04:07;;;;;;;;;;;18.30;60.00;;;;;;5026592;28;19916;-74
2021/11/04 03:06:32;;;;;;;;;;;18.40;60.00;;;;;;5010582;28;20392;-74
2021/11/04 03:08:58;;;;;;;;;;;18.30;59.90;;;;;;5043606;28;19913;-74
2021/11/04 03:11:23;;;;;;;;;;;18.30;59.90;;;;;;5044653;28;19913;-74
2021/11/04 03:13:49;;;;;;;;;;;18.30;59.90;;;;;;5043129;28;20444;-74
2021/11/04 03:16:14;;;;;;;;;;;18.30;59.90;;;;;;5009940;28;19925;-74
2021/11/04 03:18:39;;;;;;;;;;;18.30;59.90;;;;;;5010421;28;19912;-74
2021/11/04 03:21:05;;;;;;;;;;;18.30;60.00;;;;;;5026288;28;19921;-75
2021/11/04 03:23:30;;;;;;;;;;;18.30;60.00;;;;;;5044211;28;20379;-75
2021/11/04 03:25:56;;;;;;;;;;;18.30;60.00;;;;;;5026362;28;19920;-75
2021/11/04 03:28:21;;;;;;;;;;;18.30;60.00;;;;;;5026097;28;20362;-75
2021/11/04 03:30:47;;;;;;;;;;;18.20;59.90;;;;;;5026689;28;19913;-74
2021/11/04 03:33:12;;;;;;;;;;;18.30;60.00;;;;;;5026429;28;19913;-74
2021/11/04 03:35:38;;;;;;;;;;;18.20;59.90;;;;;;5043642;28;19939;-75
2021/11/04 03:38:06;;;;;;;;;;;18.30;60.10;;;;;;5025959;28;20282;-74
2021/11/04 03:40:32;;;;;;;;;;;18.30;60.00;;;;;;5009422;28;20294;-74
2021/11/04 03:42:57;;;;;;;;;;;18.30;60.00;;;;;;5025714;28;19916;-74
2021/11/04 03:45:23;;;;;;;;;;;18.20;59.90;;;;;;5028181;28;19917;-75
2021/11/04 03:47:48;;;;;;;;;;;18.20;60.00;;;;;;5030026;28;19921;-75
2021/11/04 03:50:14;;;;;;;;;;;18.20;60.00;;;;;;5048286;28;19974;-74
2021/11/04 03:52:42;;;;;;;;;;;18.20;60.00;;;;;;5030297;28;19913;-74
2021/11/04 03:55:08;;;;;;;;;;;18.20;60.00;;;;;;5047482;28;19959;-75
2021/11/04 03:57:35;;;;;;;;;;;18.20;60.10;;;;;;5049460;22;19933;-66
2021/11/04 04:00:00;;;;;;;;;;;18.20;60.10;;;;;;5066817;28;19913;-66
2021/11/04 04:02:26;;;;;;;;;;;18.20;60.10;;;;;;5031281;28;19948;-65
2021/11/04 04:04:52;;;;;;;;;;;18.20;60.20;;;;;;5012718;28;19921;-65
2021/11/04 04:07:17;;;;;;;;;;;18.20;60.20;;;;;;5039126;28;19913;-65
2021/11/04 04:09:43;;;;;;;;;;;18.10;60.30;;;;;;5028564;28;20342;-65
2021/11/04 04:12:08;;;;;;;;;;;18.10;60.30;;;;;;5034862;28;19924;-66
2021/11/04 04:14:34;;;;;;;;;;;18.10;60.30;;;;;;5030634;28;21329;-65
2021/11/04 04:16:59;;;;;;;;;;;18.10;60.20;;;;;;5047124;28;19917;-65
2021/11/04 04:19:25;;;;;;;;;;;18.10;60.30;;;;;;5033764;28;20348;-66
2021/11/04 04:21:50;;;;;;;;;;;18.10;60.30;;;;;;5046853;28;20048;-64
2021/11/04 04:24:15;;;;;;;;;;;18.10;60.30;;;;;;5042202;28;19917;-65
2021/11/04 04:26:41;;;;;;;;;;;18.10;60.30;;;;;;5035758;28;19917;-66
2021/11/04 04:29:06;;;;;;;;;;;18.10;60.40;;;;;;5035444;28;19913;-65
2021/11/04 04:31:32;;;;;;;;;;;18.10;60.40;;;;;;5039624;28;20374;-65
2021/11/04 04:33:57;;;;;;;;;;;18.10;60.40;;;;;;5046448;28;19951;-65
2021/11/04 04:36:23;;;;;;;;;;;18.10;60.50;;;;;;5036628;28;19917;-66
2021/11/04 04:38:48;;;;;;;;;;;18.00;60.40;;;;;;5031166;28;19957;-64
2021/11/04 04:41:13;;;;;;;;;;;18.10;60.40;;;;;;5027037;28;20375;-66
2021/11/04 04:43:39;;;;;;;;;;;18.00;60.40;;;;;;5038791;28;19923;-66
2021/11/04 04:46:04;;;;;;;;;;;18.10;60.50;;;;;;5026150;28;19922;-65
2021/11/04 04:48:30;;;;;;;;;;;18.10;60.50;;;;;;5027304;28;19913;-64
2021/11/04 04:50:55;;;;;;;;;;;18.00;60.50;;;;;;5034601;28;20394;-63
2021/11/04 04:53:21;;;;;;;;;;;18.00;60.50;;;;;;5046557;28;19913;-66
2021/11/04 04:55:46;;;;;;;;;;;18.00;60.50;;;;;;5027784;28;19917;-65
2021/11/04 04:58:12;;;;;;;;;;;18.00;60.50;;;;;;5034222;28;20385;-67
2021/11/04 05:00:37;;;;;;;;;;;18.00;60.50;;;;;;5009324;28;19919;-65
2021/11/04 05:03:05;;;;;;;;;;;18.00;60.50;;;;;;5028035;28;19917;-64
2021/11/04 05:05:30;;;;;;;;;;;18.00;60.50;;;;;;5032928;28;19920;-66
2021/11/04 05:07:55;;;;;;;;;;;18.00;60.50;;;;;;5044933;28;20298;-65
2021/11/04 05:10:21;;;;;;;;;;;18.00;60.50;;;;;;5046938;28;19920;-65
2021/11/04 05:12:46;;;;;;;;;;;18.00;60.50;;;;;;5033811;28;20260;-66
2021/11/04 05:15:12;;;;;;;;;;;18.00;60.50;;;;;;5047926;28;19913;-66
2021/11/04 05:17:37;;;;;;;;;;;18.00;60.40;;;;;;5037958;28;19913;-66
2021/11/04 05:20:04;;;;;;;;;;;18.10;60.40;;;;;;5013827;28;20419;-65
2021/11/04 05:22:29;;;;;;;;;;;18.10;60.30;;;;;;5020868;28;20543;-66
2021/11/04 05:24:54;;;;;;;;;;;18.10;60.20;;;;;;5039689;28;19939;-66
2021/11/04 05:27:20;;;;;;;;;;;18.10;60.30;;;;;;5018385;28;20510;-67
2021/11/04 05:29:45;;;;;;;;;;;18.10;60.40;;;;;;5033110;28;19932;-68
2021/11/04 05:32:11;;;;;;;;;;;18.00;60.40;;;;;;5046972;28;19917;-65
2021/11/04 05:34:37;;;;;;;;;;;18.10;60.50;;;;;;5037487;28;19916;-65
2021/11/04 05:37:03;;;;;;;;;;;18.10;60.60;;;;;;5035468;28;19972;-65
2021/11/04 05:39:28;;;;;;;;;;;18.10;60.70;;;;;;5034437;28;20383;-65
2021/11/04 05:41:53;;;;;;;;;;;18.10;60.80;;;;;;5029852;28;19917;-67
2021/11/04 05:44:19;;;;;;;;;;;18.10;60.80;;;;;;5034783;28;19924;-67
2021/11/04 05:46:44;;;;;;;;;;;18.10;60.80;;;;;;5043724;28;19966;-67
2021/11/04 05:49:10;;;;;;;;;;;18.10;60.70;;;;;;5026043;28;19913;-66
2021/11/04 05:51:35;;;;;;;;;;;18.10;60.60;;;;;;5035652;28;19929;-67
2021/11/04 05:54:01;;;;;;;;;;;18.10;60.50;;;;;;5036970;28;19967;-64
2021/11/04 05:56:26;;;;;;;;;;;18.10;60.50;;;;;;5032880;28;19912;-65
2021/11/04 05:58:52;;;;;;;;;;;18.10;60.30;;;;;;5008436;28;19921;-65
2021/11/04 06:01:17;;;;;;;;;;;18.10;60.30;;;;;;5029740;28;19920;-65
2021/11/04 06:03:42;;;;;;;;;;;18.10;60.20;;;;;;5036706;28;19923;-67
2021/11/04 06:06:08;;;;;;;;;;;18.10;60.20;;;;;;5043974;28;19913;-65
2021/11/04 06:08:33;;;;;;;;;;;18.10;60.10;;;;;;5036721;28;19917;-66
2021/11/04 06:10:59;;;;;;;;;;;18.10;60.10;;;;;;5045009;28;19928;-65
2021/11/04 06:13:24;;;;;;;;;;;18.10;60.10;;;;;;5036264;28;19913;-65
2021/11/04 06:15:50;;;;;;;;;;;18.10;60.00;;;;;;5034409;28;19917;-66
2021/11/04 06:18:15;;;;;;;;;;;18.10;60.00;;;;;;5020303;28;20018;-63
2021/11/04 06:20:41;;;;;;;;;;;18.10;60.00;;;;;;5035930;28;19913;-64
2021/11/04 06:23:06;;;;;;;;;;;18.10;60.20;;;;;;5034055;28;19916;-64
2021/11/04 06:25:31;;;;;;;;;;;18.10;60.20;;;;;;5034225;28;19913;-65
2021/11/04 06:27:57;;;;;;;;;;;18.10;60.20;;;;;;5030329;28;20001;-63
2021/11/04 06:30:22;;;;;;;;;;;18.10;60.70;;;;;;5031508;28;19925;-67
2021/11/04 06:32:49;;;;;;;;;;;18.10;61.40;;;;;;5030669;28;19917;-65
2021/11/04 06:35:16;;;;;;;;;;;18.10;61.70;;;;;;5038801;28;20359;-65
2021/11/04 06:37:41;;;;;;;;;;;18.00;61.90;;;;;;5034431;28;19966;-66
2021/11/04 06:40:08;;;;;;;;;;;18.00;62.00;;;;;;5043646;28;19925;-59
2021/11/04 06:42:33;;;;;;;;;;;18.00;62.20;;;;;;5045060;28;20369;-67
2021/11/04 06:44:59;;;;;;;;;;;18.00;62.20;;;;;;5035092;28;19917;-65
2021/11/04 06:47:28;;;;;;;;;;;18.00;62.40;;;;;;5038132;28;20305;-67
2021/11/04 06:49:55;;;;;;;;;;;17.90;62.40;;;;;;5011375;28;19921;-65
2021/11/04 06:52:23;;;;;;;;;;;17.90;62.60;;;;;;5011828;28;19943;-63
2021/11/04 06:54:48;;;;;;;;;;;17.90;62.60;;;;;;5024845;28;20250;-63
2021/11/04 06:57:15;;;;;;;;;;;17.90;62.70;;;;;;5045642;28;19913;-66
2021/11/04 06:59:41;;;;;;;;;;;17.90;62.70;;;;;;5021769;28;20311;-66
2021/11/04 07:02:06;;;;;;;;;;;17.90;62.60;;;;;;5025233;28;19913;-65
2021/11/04 07:04:34;;;;;;;;;;;17.90;62.80;;;;;;5020311;28;19982;-65
2021/11/04 07:09:35;;;;;;;;;;;17.90;62.90;;;;;;5031075;28;19956;-66
2021/11/04 07:12:01;;;;;;;;;;;17.90;62.90;;;;;;5040595;28;20336;-64
2021/11/04 07:14:27;;;;;;;;;;;17.90;63.00;;;;;;5040422;28;19913;-65
2021/11/04 07:16:53;;;;;;;;;;;17.80;63.00;;;;;;5044573;28;20004;-64
2021/11/04 07:19:20;;;;;;;;;;;17.80;63.10;;;;;;5040387;28;20020;-65
2021/11/04 07:21:49;;;;;;;;;;;17.90;63.10;;;;;;5008171;28;20031;-65
2021/11/04 07:24:22;;;;;;;;;;;17.90;63.00;;;;;;5035219;28;20762;-66
2021/11/04 07:26:52;;;;;;;;;;;17.90;62.60;;;;;;5005254;28;19952;-64
2021/11/04 07:29:17;;;;;;;;;;;17.90;62.30;;;;;;5020478;28;20327;-64
2021/11/04 07:31:43;;;;;;;;;;;17.90;62.00;;;;;;5007307;28;20323;-65
2021/11/04 07:34:09;;;;;;;;;;;17.90;61.90;;;;;;5017441;28;19921;-64
2021/11/04 07:36:36;;;;;;;;;;;17.90;61.70;;;;;;5021555;28;19924;-66
2021/11/04 07:39:03;;;;;;;;;;;18.00;61.40;;;;;;5042810;28;19923;-65
2021/11/04 07:41:32;;;;;;;;;;;18.00;60.90;;;;;;5035973;28;19922;-65
2021/11/04 07:43:57;;;;;;;;;;;18.00;60.70;;;;;;5017947;28;19939;-66
2021/11/04 07:46:23;;;;;;;;;;;18.00;60.50;;;;;;5038391;28;19985;-64
2021/11/04 07:48:48;;;;;;;;;;;18.00;60.30;;;;;;5033380;28;19939;-67
2021/11/04 07:51:14;;;;;;;;;;;18.10;60.40;;;;;;5036039;28;20523;-66
2021/11/04 07:53:39;;;;;;;;;;;18.10;60.50;;;;;;5038202;28;19920;-64
2021/11/04 07:56:05;;;;;;;;;;;18.20;60.80;;;;;;5025953;28;19913;-65
2021/11/04 07:58:31;;;;;;;;;;;18.10;60.80;;;;;;5014082;28;19964;-64
2021/11/04 08:00:56;;;;;;;;;;;18.20;60.70;;;;;;5036457;28;19916;-64
2021/11/04 08:03:22;;;;;;;;;;;18.20;60.70;;;;;;5033252;28;19921;-63
2021/11/04 08:05:50;;;;;;;;;;;18.20;60.70;;;;;;5025349;28;20019;-64
2021/11/04 08:08:15;;;;;;;;;;;18.20;60.70;;;;;;5035557;28;20496;-64
2021/11/04 08:10:41;;;;;;;;;;;18.20;60.60;;;;;;5032948;28;19913;-65
2021/11/04 08:13:07;;;;;;;;;;;18.20;60.50;;;;;;5033084;28;19939;-64
2021/11/04 08:15:34;;;;;;;;;;;18.20;60.50;;;;;;5030256;28;20410;-62
2021/11/04 08:18:00;;;;;;;;;;;18.20;60.40;;;;;;5042063;28;20364;-60
2021/11/04 08:20:25;;;;;;;;;;;18.20;60.60;;;;;;5029959;28;19919;-65
2021/11/04 08:22:51;;;;;;;;;;;18.20;60.80;;;;;;5007782;28;19913;-65
2021/11/04 08:25:16;;;;;;;;;;;18.20;60.80;;;;;;5037503;28;19913;-65
2021/11/04 08:27:42;;;;;;;;;;;18.20;60.70;;;;;;5034031;28;20173;-65
2021/11/04 08:30:09;;;;;;;;;;;18.20;60.60;;;;;;5033883;28;20484;-63
2021/11/04 08:32:34;;;;;;;;;;;18.20;60.60;;;;;;5031795;28;19917;-64
2021/11/04 08:34:59;;;;;;;;;;;18.20;60.50;;;;;;5025871;28;19924;-65
2021/11/04 08:37:25;;;;;;;;;;;18.20;60.50;;;;;;5030830;28;19945;-65
2021/11/04 08:39:50;;;;;;;;;;;18.20;60.50;;;;;;5034793;28;19913;-65
2021/11/04 08:42:16;;;;;;;;;;;18.20;60.40;;;;;;5038034;28;19966;-64
2021/11/04 08:44:42;;;;;;;;;;;18.20;60.40;;;;;;5031131;28;19917;-64
2021/11/04 08:47:09;;;;;;;;;;;18.20;60.30;;;;;;5025726;28;20532;-64
2021/11/04 08:49:35;;;;;;;;;;;18.20;60.30;;;;;;5021362;28;19913;-65
2021/11/04 08:52:00;;;;;;;;;;;18.20;60.30;;;;;;5029923;28;20202;-65
2021/11/04 08:54:25;;;;;;;;;;;18.20;60.30;;;;;;5026160;28;20363;-64
2021/11/04 08:56:51;;;;;;;;;;;18.20;60.30;;;;;;5040222;28;19912;-63
2021/11/04 08:59:17;;;;;;;;;;;18.20;60.30;;;;;;5041627;28;19921;-65
2021/11/04 09:01:43;;;;;;;;;;;18.20;60.20;;;;;;5039329;28;19913;-64
2021/11/04 09:04:09;;;;;;;;;;;18.20;60.10;;;;;;5034348;28;19921;-64
2021/11/04 09:06:35;;;;;;;;;;;18.20;60.20;;;;;;5038643;28;19913;-65
2021/11/04 09:09:04;;;;;;;;;;;18.20;60.20;;;;;;5031822;28;19913;-64
2021/11/04 09:11:29;;;;;;;;;;;18.20;60.10;;;;;;5028362;28;19917;-66
2021/11/04 09:13:55;;;;;;;;;;;18.20;60.10;;;;;;5025499;28;20150;-65
2021/11/04 09:16:20;;;;;;;;;;;18.20;60.10;;;;;;5034005;28;20015;-64
2021/11/04 09:18:45;;;;;;;;;;;18.20;60.10;;;;;;5033954;28;19912;-64
2021/11/04 09:21:11;;;;;;;;;;;18.20;60.10;;;;;;5043890;28;20088;-65
2021/11/04 09:23:36;;;;;;;;;;;18.20;60.00;;;;;;5034907;28;20441;-65
2021/11/04 09:26:02;;;;;;;;;;;18.20;60.00;;;;;;5041792;28;19919;-64
2021/11/04 09:28:27;;;;;;;;;;;18.20;60.00;;;;;;5039117;28;19913;-65
2021/11/04 09:30:53;;;;;;;;;;;18.20;60.00;;;;;;5025065;28;20346;-65
2021/11/04 09:33:19;;;;;;;;;;;18.20;60.00;;;;;;5045883;28;19913;-64
2021/11/04 09:35:44;;;;;;;;;;;18.20;60.00;;;;;;5045414;28;19913;-65
2021/11/04 09:38:10;;;;;;;;;;;18.20;59.90;;;;;;5027329;28;19921;-65
2021/11/04 09:40:35;;;;;;;;;;;18.20;59.90;;;;;;5031410;28;19917;-65
2021/11/04 09:43:01;;;;;;;;;;;18.20;59.90;;;;;;5035063;28;19913;-61
2021/11/04 09:45:27;;;;;;;;;;;18.20;59.90;;;;;;5015698;28;19952;-65
2021/11/04 09:47:52;;;;;;;;;;;18.20;59.90;;;;;;5033659;28;20370;-60
2021/11/04 09:50:18;;;;;;;;;;;18.20;60.50;;;;;;5030120;28;19948;-65
2021/11/04 09:52:44;;;;;;;;;;;18.10;59.80;;;;;;5045179;28;19960;-65
2021/11/04 09:55:10;;;;;;;;;;;18.10;59.90;;;;;;5045143;28;19996;-65
2021/11/04 09:57:37;;;;;;;;;;;18.10;59.90;;;;;;5021485;28;19920;-65
2021/11/04 10:00:03;;;;;;;;;;;18.10;59.80;;;;;;5024666;28;20008;-65
2021/11/04 10:02:28;;;;;;;;;;;18.10;59.80;;;;;;5034935;28;20020;-64
2021/11/04 10:05:05;;;;;;;;;;;18.10;59.70;;;;;;5036211;28;20403;-65
2021/11/04 10:07:39;;;;;;;;;;;18.10;59.70;;;;;;5019641;28;20283;-64
2021/11/04 10:10:05;;;;;;;;;;;18.10;59.70;;;;;;5027895;28;19989;-65
2021/11/04 10:12:30;;;;;;;;;;;18.10;59.70;;;;;;5034266;28;19924;-64
2021/11/04 10:14:56;;;;;;;;;;;18.10;59.70;;;;;;5035847;28;19952;-66
2021/11/04 10:17:28;;;;;;;;;;;18.10;59.70;;;;;;5018104;28;19919;-64
2021/11/04 10:19:53;;;;;;;;;;;18.10;59.70;;;;;;5027199;28;19918;-66
2021/11/04 10:22:25;;;;;;;;;;;18.10;59.70;;;;;;5035632;28;19914;-65
2021/11/04 10:24:50;;;;;;;;;;;18.00;59.60;;;;;;5036535;28;20003;-65
2021/11/04 10:27:28;;;;;;;;;;;18.10;59.70;;;;;;5043823;28;19913;-65
2021/11/04 10:29:54;;;;;;;;;;;18.10;59.60;;;;;;5042228;28;19913;-66
2021/11/04 10:32:29;;;;;;;;;;;18.10;59.60;;;;;;5024551;28;20572;-66
2021/11/04 10:34:55;;;;;;;;;;;18.00;59.60;;;;;;5028105;28;21555;-65
2021/11/04 10:37:21;;;;;;;;;;;18.00;59.60;;;;;;5044865;28;20327;-64
2021/11/04 10:39:47;;;;;;;;;;;18.00;59.60;;;;;;5044457;28;20339;-65
2021/11/04 10:42:12;;;;;;;;;;;18.00;59.60;;;;;;5032775;28;19913;-65
2021/11/04 10:44:38;;;;;;;;;;;18.00;59.60;;;;;;5034443;28;19966;-65
2021/11/04 10:47:03;;;;;;;;;;;18.00;59.60;;;;;;5044515;28;20270;-65
2021/11/04 10:49:46;;;;;;;;;;;18.00;59.60;;;;;;5030510;28;19948;-64
2021/11/04 10:52:12;;;;;;;;;;;18.00;59.60;;;;;;5016334;28;19913;-64
2021/11/04 10:54:44;;;;;;;;;;;18.00;59.60;;;;;;5033874;28;19920;-64
2021/11/04 10:57:10;;;;;;;;;;;18.00;59.60;;;;;;5031949;28;19913;-66
2021/11/04 10:59:46;;;;;;;;;;;18.10;59.70;;;;;;5014787;28;20011;-65
2021/11/04 11:02:11;;;;;;;;;;;18.00;59.60;;;;;;4995314;28;19913;-65
2021/11/04 11:04:37;;;;;;;;;;;18.00;59.60;;;;;;5035892;28;19932;-65
2021/11/04 11:07:02;;;;;;;;;;;18.00;59.60;;;;;;5032459;28;19913;-65
2021/11/04 11:09:29;;;;;;;;;;;18.00;59.60;;;;;;5034953;28;19916;-65
2021/11/04 11:11:58;;;;;;;;;;;18.00;59.60;;;;;;5025150;28;19913;-65
2021/11/04 11:14:27;;;;;;;;;;;18.00;59.60;;;;;;5043109;28;20410;-65
2021/11/04 11:16:53;;;;;;;;;;;18.00;59.50;;;;;;5025545;28;20429;-65
2021/11/04 11:19:20;;;;;;;;;;;18.10;59.60;;;;;;5028633;28;19913;-66
2021/11/04 11:21:50;;;;;;;;;;;18.10;59.60;;;;;;5004590;28;19939;-64
2021/11/04 11:24:16;;;;;;;;;;;18.10;59.50;;;;;;5018178;28;19928;-64
2021/11/04 11:26:42;;;;;;;;;;;18.10;59.50;;;;;;5016642;28;19912;-63
2021/11/04 11:29:07;;;;;;;;;;;18.10;59.50;;;;;;5006439;28;19996;-66
2021/11/04 11:31:33;;;;;;;;;;;18.10;59.50;;;;;;5025640;28;19966;-65
2021/11/04 11:33:58;;;;;;;;;;;18.10;59.50;;;;;;5034898;28;19917;-64
2021/11/04 11:36:26;;;;;;;;;;;18.10;59.50;;;;;;5043961;28;19986;-65
2021/11/04 11:39:16;;;;;;;;;;;18.10;59.50;;;;;;5044470;28;19924;-63
2021/11/04 11:41:52;;;;;;;;;;;18.10;59.40;;;;;;5042231;28;19963;-65
2021/11/04 11:44:37;;;;;;;;;;;18.10;59.40;;;;;;5011992;28;19974;-65
2021/11/04 11:47:03;;;;;;;;;;;18.10;59.30;;;;;;5051237;28;19943;-65
2021/11/04 11:49:29;;;;;;;;;;;18.10;59.30;;;;;;5038074;28;19924;-63
2021/11/04 11:51:55;;;;;;;;;;;18.20;59.30;;;;;;5040713;28;19913;-64
2021/11/04 11:54:39;;;;;;;;;;;18.20;59.30;;;;;;5045378;28;20402;-63
2021/11/04 11:57:08;;;;;;;;;;;18.10;59.30;;;;;;5036166;28;20266;-62
2021/11/04 11:59:46;;;;;;;;;;;18.20;59.30;;;;;;5021561;28;20422;-62
2021/11/04 12:02:32;;;;;;;;;;;18.10;59.20;;;;;;5005599;28;19969;-63
2021/11/04 12:05:17;;;;;;;;;;;18.20;59.30;;;;;;5003267;28;20012;-61
2021/11/04 12:07:42;;;;;;;;;;;18.10;59.30;;;;;;5034043;28;19917;-58
2021/11/04 12:10:28;;;;;;;;;;;18.20;59.30;;;;;;5008698;28;20429;-64
2021/11/04 12:12:53;;;;;;;;;;;18.10;59.20;;;;;;5036039;28;19912;-64
2021/11/04 12:15:19;;;;;;;;;;;18.20;59.30;;;;;;5040714;28;19921;-64
2021/11/04 12:18:03;;;;;;;;;;;18.10;59.20;;;;;;5025028;28;19913;-63
2021/11/04 12:20:29;;;;;;;;;;;18.20;59.30;;;;;;5037924;28;20000;-62
2021/11/04 12:22:54;;;;;;;;;;;18.20;59.30;;;;;;5035810;28;20138;-65
2021/11/04 12:25:20;;;;;;;;;;;18.10;59.20;;;;;;5045180;28;19917;-64
2021/11/04 12:27:45;;;;;;;;;;;18.10;59.20;;;;;;5028409;28;20015;-63
2021/11/04 12:30:14;;;;;;;;;;;18.20;59.20;;;;;;5037519;28;20035;-65
2021/11/04 12:32:40;;;;;;;;;;;18.20;59.20;;;;;;5045943;28;20437;-64
2021/11/04 12:35:05;;;;;;;;;;;18.20;59.20;;;;;;5033886;28;19913;-64
2021/11/04 12:37:32;;;;;;;;;;;18.20;59.10;;;;;;5026613;28;19913;-64
2021/11/04 12:40:01;;;;;;;;;;;18.20;59.10;;;;;;5032052;28;19917;-63
2021/11/04 12:42:26;;;;;;;;;;;18.20;59.10;;;;;;5038936;28;19913;-64
2021/11/04 12:44:52;;;;;;;;;;;18.20;59.10;;;;;;5044225;28;19917;-64
2021/11/04 12:47:18;;;;;;;;;;;18.20;59.10;;;;;;5042109;28;19959;-64
2021/11/04 12:49:44;;;;;;;;;;;18.20;59.10;;;;;;5038474;28;20370;-64
2021/11/04 12:52:10;;;;;;;;;;;18.20;59.10;;;;;;5034489;28;19913;-64
2021/11/04 12:54:36;;;;;;;;;;;18.20;59.10;;;;;;5041331;28;19913;-62
2021/11/04 12:57:03;;;;;;;;;;;18.10;59.00;;;;;;5031435;28;20299;-64
2021/11/04 12:59:30;;;;;;;;;;;18.20;59.10;;;;;;5034959;28;19917;-63
2021/11/04 13:01:56;;;;;;;;;;;18.10;59.00;;;;;;5041708;28;19913;-63
2021/11/04 13:04:50;;;;;;;;;;;18.10;59.00;;;;;;5045403;28;19971;-64
2021/11/04 13:07:18;;;;;;;;;;;18.20;59.00;;;;;;5023352;28;20007;-63
2021/11/04 13:09:44;;;;;;;;;;;18.10;59.00;;;;;;5037146;28;19955;-63
2021/11/04 13:12:11;;;;;;;;;;;18.10;59.10;;;;;;5032188;28;19995;-63
2021/11/04 13:15:06;;;;;;;;;;;18.10;59.10;;;;;;5012536;28;20007;-60
2021/11/04 13:17:37;;;;;;;;;;;18.10;59.10;;;;;;5018662;28;20133;-62
2021/11/04 13:20:04;;;;;;;;;;;18.10;59.10;;;;;;5038073;28;19913;-63
2021/11/04 13:22:30;;;;;;;;;;;18.10;59.20;;;;;;5038675;28;20336;-64
2021/11/04 13:24:56;;;;;;;;;;;18.10;59.10;;;;;;5053861;28;19917;-62
2021/11/04 13:27:21;;;;;;;;;;;18.10;59.10;;;;;;5019852;28;20341;-62
2021/11/04 13:29:54;;;;;;;;;;;18.10;59.10;;;;;;5018612;28;20477;-63
2021/11/04 13:32:20;;;;;;;;;;;18.10;59.10;;;;;;5017788;28;20398;-63
2021/11/04 13:34:48;;;;;;;;;;;18.00;59.10;;;;;;5015145;28;19913;-61
2021/11/04 13:37:17;;;;;;;;;;;18.10;59.20;;;;;;5033597;28;20317;-64
2021/11/04 13:39:43;;;;;;;;;;;18.10;59.10;;;;;;5025858;28;20374;-64
2021/11/04 13:42:19;;;;;;;;;;;18.00;59.10;;;;;;5026774;28;19919;-65
2021/11/04 13:44:44;;;;;;;;;;;18.00;59.10;;;;;;5031867;28;19917;-64
2021/11/04 13:47:10;;;;;;;;;;;18.00;59.10;;;;;;5012295;28;19970;-64
2021/11/04 13:49:35;;;;;;;;;;;18.00;59.10;;;;;;5024239;28;19944;-63
2021/11/04 13:52:01;;;;;;;;;;;18.00;59.10;;;;;;5011167;28;20831;-64
2021/11/04 13:54:27;;;;;;;;;;;18.00;59.10;;;;;;5034035;28;19971;-64
2021/11/04 13:56:56;;;;;;;;;;;18.00;59.10;;;;;;5022070;28;20116;-64
2021/11/04 13:59:31;;;;;;;;;;;18.00;59.10;;;;;;5039966;28;19925;-63
2021/11/04 14:01:56;;;;;;;;;;;18.00;59.10;;;;;;5035353;28;19924;-64
2021/11/04 14:04:22;;;;;;;;;;;18.00;59.10;;;;;;5017268;28;19917;-64
2021/11/04 14:06:47;;;;;;;;;;;18.00;59.10;;;;;;5029314;28;20057;-64
2021/11/04 14:09:28;;;;;;;;;;;18.00;59.10;;;;;;5039087;28;20412;-63
2021/11/04 14:12:05;;;;;;;;;;;18.00;59.10;;;;;;5029120;28;19912;-63
2021/11/04 14:14:40;;;;;;;;;;;18.00;59.20;;;;;;5010318;28;19914;-64
2021/11/04 14:17:05;;;;;;;;;;;18.00;59.10;;;;;;5038419;28;19920;-63